Mount Pleasant, North Carolina
Current Conditions -  °F | °C
As of 4:55 AM on Wednesday 26 Nov 2014 (Local Time) from KJQF Reporting Station
Moderate Rain Moderate Rain  
Wind Chill: 41°   Ceiling: 4600
Heat Index: 45°   Visibility: 5mi
Dew Point: 43°   Wind: 7mph
Humidity: 93%   Direction: 10°N
Pressure: 30.01"   Gusts: NA
Location:  35.4°N, 80.44°W
Report Text: KJQF 260955Z AUTO 01006KT 5SM RA SCT009 BKN046 OVC060 07/06 A3001 RMK AO2 P0004
Loading
Personal Weather Stations






























Interactive Weather Map New forecast layout! Learn more

10-Day Weather Forecast

Advertisements
Track Severe Weather on mobile